RKSS/GMP METAR and TAF weather

Enter ICAO airport designator
Station Type Date Time Source
RKSS METAR 2019/06/17 12:00 UTC NOAA

RKSS 171200Z 28007KT CAVOK 19/14 Q1012 NOSIG


Station Type Date Time Source
RKSS Decoded METAR 2019/06/17 12:00 UTC NOAA

Seoul / Kimp'O International Airport, Korea, South (RKSS) 37-33N 126-48E 18M
Jun 17, 2019 - 08:00 AM EDT / 2019.06.17 1200 UTC
Wind: from the W (280 degrees) at 8 MPH (7 KT):0
Visibility: greater than 7 mile(s):0
Temperature: 66 F (19 C)
Dew Point: 57 F (14 C)
Relative Humidity: 72%
Pressure (altimeter): 29.88 in. Hg (1012 hPa)
ob: RKSS 171200Z 28007KT CAVOK 19/14 Q1012 NOSIG
cycle: 12

Station Type Date Time Source
RKSS TAF 2019/06/17 12:09 UTC NOAA

TAF RKSS 171100Z 1712/1818 27009KT CAVOK TN17/1721Z TX26/1805Z
BECMG 1714/1715 18005KT 6000 SCT030 BKN120
TEMPO 1719/1721 4200 BR
BECMG 1801/1802 25010KT
BECMG 1811/1812 22007KT 4200 -RA FEW010 BKN025 OVC080

Example: see airport list